Time;durP1;ratioP1;P1;durP2;ratioP2;P2;SDS_P1;SDS_P2;PMS_P1;PMS_P2;Temp;Humidity;BMP_temperature;BMP_pressure;BME280_temperature;BME280_humidity;BME280_pressure;Samples;Min_cycle;Max_cycle;Signal;HPM_P1;HPM_P2
2021/03/14 00:00:59;;;;;;;45.58;26.92;;;6.70;90.00;;;;;;5114176;28;20032;-73
2021/03/14 00:03:28;;;;;;;44.58;24.48;;;6.80;89.90;;;;;;5114588;28;20027;-74
2021/03/14 00:05:55;;;;;;;40.15;24.20;;;6.80;89.60;;;;;;5114253;28;20044;-74
2021/03/14 00:08:23;;;;;;;36.95;23.48;;;6.70;88.60;;;;;;5114230;28;20027;-74
2021/03/14 00:10:52;;;;;;;42.15;19.05;;;6.60;88.10;;;;;;5114537;28;20032;-74
2021/03/14 00:13:28;;;;;;;28.10;13.88;;;6.50;87.20;;;;;;5114128;28;20479;-73
2021/03/14 00:15:54;;;;;;;25.40;13.90;;;6.40;86.70;;;;;;5114047;28;20036;-73
2021/03/14 00:18:21;;;;;;;25.85;13.13;;;6.30;86.60;;;;;;5114043;28;20095;-73
2021/03/14 00:20:47;;;;;;;30.50;13.27;;;6.30;86.80;;;;;;5113841;28;20035;-73
2021/03/14 00:23:13;;;;;;;23.35;12.48;;;6.20;85.60;;;;;;5114006;28;20024;-74
2021/03/14 00:25:39;;;;;;;24.25;14.13;;;6.10;85.80;;;;;;5114155;28;20020;-74
2021/03/14 00:28:05;;;;;;;25.45;12.38;;;6.10;86.70;;;;;;5113776;28;20028;-74
2021/03/14 00:30:31;;;;;;;28.58;12.73;;;6.10;86.30;;;;;;5113689;28;20042;-73
2021/03/14 00:32:57;;;;;;;21.73;12.13;;;6.10;85.90;;;;;;5113679;28;20019;-74
2021/03/14 00:35:24;;;;;;;28.92;14.60;;;6.10;86.40;;;;;;5113928;28;20031;-73
2021/03/14 00:37:51;;;;;;;32.78;15.30;;;6.00;86.50;;;;;;5113658;28;20020;-73
2021/03/14 00:40:16;;;;;;;28.92;13.45;;;6.00;87.10;;;;;;5122116;28;20046;-74
2021/03/14 00:42:42;;;;;;;30.92;13.73;;;6.00;86.90;;;;;;5134055;28;20406;-73
2021/03/14 00:45:08;;;;;;;25.48;12.57;;;6.00;86.90;;;;;;5134551;28;20020;-74
2021/03/14 00:47:35;;;;;;;31.70;13.02;;;6.00;86.60;;;;;;5115776;28;20367;-73
2021/03/14 00:50:05;;;;;;;31.17;13.25;;;6.00;87.20;;;;;;5133806;28;20031;-73
2021/03/14 00:52:30;;;;;;;30.15;13.07;;;6.00;87.80;;;;;;5120683;28;20024;-73
2021/03/14 00:54:56;;;;;;;27.58;13.15;;;6.10;87.70;;;;;;5120160;28;20493;-74
2021/03/14 00:57:22;;;;;;;28.40;15.13;;;6.20;87.30;;;;;;5120023;28;20024;-73
2021/03/14 00:59:47;;;;;;;25.80;12.68;;;6.20;87.30;;;;;;5119936;28;20062;-74
2021/03/14 01:02:13;;;;;;;29.88;12.90;;;6.30;86.80;;;;;;5120020;28;20314;-74
2021/03/14 01:04:38;;;;;;;21.63;12.80;;;6.30;86.30;;;;;;5120283;28;20402;-73
2021/03/14 01:07:04;;;;;;;25.48;12.20;;;6.30;85.80;;;;;;5119903;28;20046;-73
2021/03/14 01:09:30;;;;;;;25.63;13.20;;;6.30;86.10;;;;;;5119674;28;20039;-73
2021/03/14 01:11:55;;;;;;;25.40;12.88;;;6.30;85.90;;;;;;5119885;28;20055;-73
2021/03/14 01:14:21;;;;;;;24.67;11.88;;;6.30;86.10;;;;;;5119820;28;20028;-73
2021/03/14 01:16:47;;;;;;;30.67;12.00;;;6.30;86.20;;;;;;5119741;28;20023;-73
2021/03/14 01:19:12;;;;;;;30.70;13.45;;;6.40;86.60;;;;;;5119625;28;20327;-73
2021/03/14 01:21:38;;;;;;;25.02;12.25;;;6.50;87.10;;;;;;5119743;28;20036;-74
2021/03/14 01:24:04;;;;;;;25.98;11.85;;;6.60;87.40;;;;;;5119873;28;20028;-73
2021/03/14 01:26:30;;;;;;;29.20;12.30;;;6.60;87.50;;;;;;5119766;28;20027;-74
2021/03/14 01:28:55;;;;;;;22.98;10.45;;;6.70;87.30;;;;;;5101339;28;20042;-74
2021/03/14 01:31:21;;;;;;;26.63;10.55;;;6.80;87.00;;;;;;5119428;28;20027;-73
2021/03/14 01:33:47;;;;;;;21.80;10.38;;;6.90;86.40;;;;;;5119852;28;20034;-74
2021/03/14 01:36:12;;;;;;;22.95;11.93;;;6.90;85.90;;;;;;5119381;28;20024;-73
2021/03/14 01:38:38;;;;;;;22.00;12.25;;;7.00;85.50;;;;;;5119867;28;20080;-73
2021/03/14 01:41:04;;;;;;;30.52;15.02;;;7.00;85.30;;;;;;5118974;28;20035;-73
2021/03/14 01:43:35;;;;;;;30.77;15.05;;;7.10;85.30;;;;;;5101226;28;20027;-73
2021/03/14 01:46:01;;;;;;;24.65;14.80;;;7.10;85.30;;;;;;5119227;28;20024;-73
2021/03/14 01:48:27;;;;;;;27.50;12.88;;;7.20;85.50;;;;;;5119398;28;20035;-73
2021/03/14 01:50:53;;;;;;;25.90;12.90;;;7.30;83.90;;;;;;5119146;28;20024;-73
2021/03/14 01:53:20;;;;;;;29.67;14.13;;;7.40;83.90;;;;;;5119031;28;20031;-74
2021/03/14 01:55:47;;;;;;;24.77;15.57;;;7.60;84.00;;;;;;5118914;28;20403;-73
2021/03/14 01:58:13;;;;;;;32.72;20.73;;;7.60;84.60;;;;;;5118955;28;20055;-73
2021/03/14 02:00:40;;;;;;;32.65;17.55;;;7.50;86.20;;;;;;5118742;28;20047;-74
2021/03/14 02:03:06;;;;;;;30.08;18.42;;;7.50;86.20;;;;;;5117831;28;20030;-73
2021/03/14 02:05:31;;;;;;;36.33;21.08;;;7.50;86.30;;;;;;5118798;28;20020;-73
2021/03/14 02:07:58;;;;;;;38.45;17.77;;;7.50;86.70;;;;;;5118694;28;20073;-73
2021/03/14 02:10:28;;;;;;;32.03;17.27;;;7.50;86.40;;;;;;5118921;28;20080;-74
2021/03/14 02:13:18;;;;;;;28.60;16.73;;;7.40;86.20;;;;;;5118877;28;20308;-74
2021/03/14 02:16:02;;;;;;;30.90;18.75;;;7.50;86.20;;;;;;5118742;28;20538;-73
2021/03/14 02:18:29;;;;;;;35.25;19.75;;;7.30;86.30;;;;;;5118931;28;20437;-71
2021/03/14 02:20:56;;;;;;;36.80;19.75;;;7.20;86.80;;;;;;5118544;28;20019;-71
2021/03/14 02:23:46;;;;;;;32.78;17.30;;;7.10;87.20;;;;;;5100396;28;20032;-72
2021/03/14 02:26:14;;;;;;;36.20;21.25;;;7.00;87.20;;;;;;5118561;28;20031;-71
2021/03/14 02:28:41;;;;;;;35.33;19.95;;;7.00;87.30;;;;;;5118397;28;20024;-72
2021/03/14 02:31:07;;;;;;;30.92;21.15;;;7.00;87.60;;;;;;5118151;28;20027;-73
2021/03/14 02:33:35;;;;;;;42.42;23.45;;;6.80;88.20;;;;;;5118264;28;20030;-73
2021/03/14 02:36:02;;;;;;;50.35;34.72;;;6.70;88.40;;;;;;5118152;28;20031;-73
2021/03/14 02:38:28;;;;;;;56.75;34.40;;;6.60;91.80;;;;;;5118162;28;20052;-73
2021/03/14 02:40:56;;;;;;;50.03;34.75;;;6.60;92.60;;;;;;5117769;28;20039;-74
2021/03/14 02:43:26;;;;;;;48.97;32.55;;;6.40;93.00;;;;;;5118297;28;20035;-73
2021/03/14 02:45:54;;;;;;;58.42;31.77;;;6.40;93.00;;;;;;5117959;28;20020;-73
2021/03/14 02:48:22;;;;;;;44.80;31.40;;;6.30;92.80;;;;;;5117925;28;20028;-73
2021/03/14 02:50:48;;;;;;;43.35;30.30;;;6.20;92.00;;;;;;5117804;28;20027;-73
2021/03/14 02:53:17;;;;;;;42.15;23.92;;;6.20;90.90;;;;;;5117891;28;20024;-73
2021/03/14 02:55:43;;;;;;;34.38;20.88;;;6.10;90.50;;;;;;5117783;28;20032;-73
2021/03/14 02:58:11;;;;;;;33.28;21.92;;;6.10;90.30;;;;;;5117734;28;20027;-74
2021/03/14 03:00:40;;;;;;;29.60;19.60;;;6.10;90.40;;;;;;5117593;28;20042;-74
2021/03/14 03:03:07;;;;;;;31.33;19.25;;;6.10;90.50;;;;;;5117655;28;20035;-71
2021/03/14 03:05:33;;;;;;;36.85;18.83;;;6.10;90.10;;;;;;5117611;28;20016;-71
2021/03/14 03:08:00;;;;;;;31.52;18.25;;;6.10;90.40;;;;;;5117602;28;20038;-73
2021/03/14 03:10:29;;;;;;;36.20;19.00;;;6.20;90.10;;;;;;5117818;28;20114;-73
2021/03/14 03:12:58;;;;;;;35.90;19.45;;;6.20;90.00;;;;;;5117512;28;20304;-73
2021/03/14 03:15:25;;;;;;;31.30;19.45;;;6.20;90.20;;;;;;5117226;28;20031;-74
2021/03/14 03:17:51;;;;;;;33.58;19.88;;;6.30;90.40;;;;;;5117677;28;20031;-73
2021/03/14 03:20:18;;;;;;;31.13;18.75;;;6.30;90.30;;;;;;5117298;28;20019;-73
2021/03/14 03:22:44;;;;;;;34.83;20.40;;;6.40;90.00;;;;;;5117614;28;20369;-73
2021/03/14 03:25:10;;;;;;;32.45;18.80;;;6.40;89.80;;;;;;5117446;28;20043;-73
2021/03/14 03:27:37;;;;;;;33.70;19.23;;;6.50;90.00;;;;;;5117356;28;20027;-73
2021/03/14 03:30:09;;;;;;;29.33;18.85;;;6.60;89.90;;;;;;5099239;28;20024;-73
2021/03/14 03:32:35;;;;;;;31.58;15.18;;;6.60;89.60;;;;;;5117228;28;20418;-73
2021/03/14 03:35:02;;;;;;;28.35;15.10;;;6.70;89.30;;;;;;5117360;28;20031;-74
2021/03/14 03:37:28;;;;;;;24.95;13.85;;;6.80;89.00;;;;;;5117153;28;20057;-74
2021/03/14 03:39:54;;;;;;;27.63;14.02;;;6.90;88.40;;;;;;5116895;28;20046;-74
2021/03/14 03:42:25;;;;;;;27.75;13.43;;;7.00;87.90;;;;;;5117230;28;20051;-73
2021/03/14 03:44:52;;;;;;;25.85;13.38;;;7.00;87.80;;;;;;5117172;28;20022;-73
2021/03/14 03:47:18;;;;;;;22.85;13.07;;;7.10;87.40;;;;;;5117133;28;20020;-73
2021/03/14 03:49:48;;;;;;;25.70;12.77;;;7.20;87.10;;;;;;5117054;28;20023;-74
2021/03/14 03:52:17;;;;;;;33.42;13.40;;;7.20;86.70;;;;;;5117292;28;20028;-73
2021/03/14 03:54:46;;;;;;;27.05;12.30;;;7.20;86.60;;;;;;5117547;28;20379;-74
2021/03/14 03:57:13;;;;;;;28.63;13.68;;;7.20;86.50;;;;;;5117085;28;20023;-73
2021/03/14 03:59:39;;;;;;;23.58;12.07;;;7.20;86.30;;;;;;5116934;28;20055;-74
2021/03/14 04:02:06;;;;;;;24.17;12.10;;;7.20;86.40;;;;;;5117251;28;20306;-73
2021/03/14 04:04:34;;;;;;;24.10;12.05;;;7.20;85.80;;;;;;5117026;28;20020;-73
2021/03/14 04:07:02;;;;;;;30.00;12.40;;;7.30;85.70;;;;;;5098878;28;20024;-73
2021/03/14 04:09:28;;;;;;;24.40;11.23;;;7.20;85.80;;;;;;5116815;28;20032;-73
2021/03/14 04:11:55;;;;;;;19.58;11.00;;;7.20;86.10;;;;;;5116910;28;20031;-74
2021/03/14 04:14:22;;;;;;;25.65;12.23;;;7.20;86.30;;;;;;5116946;28;20395;-73
2021/03/14 04:16:50;;;;;;;23.92;11.57;;;7.20;86.10;;;;;;5116797;28;20023;-73
2021/03/14 04:19:20;;;;;;;23.38;11.57;;;7.20;86.00;;;;;;5116966;28;20020;-74
2021/03/14 04:21:47;;;;;;;22.40;10.73;;;7.30;86.00;;;;;;5117460;28;20284;-74
2021/03/14 04:24:15;;;;;;;30.80;12.20;;;7.30;85.70;;;;;;5116836;28;20015;-73
2021/03/14 04:26:43;;;;;;;22.92;10.95;;;7.30;85.80;;;;;;5100272;28;20034;-73
2021/03/14 04:29:09;;;;;;;29.20;11.48;;;7.30;85.60;;;;;;5120693;28;20032;-73
2021/03/14 04:31:45;;;;;;;26.00;11.63;;;7.40;85.20;;;;;;5120534;28;20019;-74
2021/03/14 04:34:13;;;;;;;22.02;11.15;;;7.40;85.00;;;;;;5120759;28;20047;-74
2021/03/14 04:36:40;;;;;;;26.35;11.73;;;7.40;85.20;;;;;;5120736;28;20028;-74
2021/03/14 04:39:07;;;;;;;22.40;11.32;;;7.40;84.80;;;;;;5120386;28;20073;-73
2021/03/14 04:41:35;;;;;;;22.15;10.98;;;7.50;84.40;;;;;;5120212;28;20059;-73
2021/03/14 04:44:02;;;;;;;24.83;11.73;;;7.50;84.50;;;;;;5120629;28;20027;-74
2021/03/14 04:46:28;;;;;;;25.48;11.73;;;7.50;84.70;;;;;;5120261;28;20020;-73
2021/03/14 04:48:56;;;;;;;20.88;10.77;;;7.60;85.00;;;;;;5120525;28;20031;-73
2021/03/14 04:51:24;;;;;;;24.73;11.93;;;7.50;84.80;;;;;;5120138;28;20304;-73
2021/03/14 04:53:51;;;;;;;19.95;10.02;;;7.40;84.90;;;;;;5120236;28;20415;-73
2021/03/14 04:56:17;;;;;;;22.50;10.30;;;7.30;84.90;;;;;;5120129;28;20115;-73
2021/03/14 04:58:43;;;;;;;21.08;10.98;;;7.20;85.40;;;;;;5120175;28;20112;-73
2021/03/14 05:01:12;;;;;;;29.40;11.38;;;7.20;85.20;;;;;;5120011;28;20078;-73
2021/03/14 05:03:40;;;;;;;20.08;9.95;;;7.20;85.10;;;;;;5120262;28;20023;-74
2021/03/14 05:06:06;;;;;;;26.30;11.23;;;7.30;84.90;;;;;;5119910;28;20323;-73
2021/03/14 05:08:33;;;;;;;19.00;10.55;;;7.40;84.80;;;;;;5119889;28;20020;-74
2021/03/14 05:10:59;;;;;;;16.45;9.45;;;7.50;84.70;;;;;;5120188;28;20048;-74
2021/03/14 05:13:24;;;;;;;18.13;9.55;;;7.50;84.70;;;;;;5101770;28;20140;-73
2021/03/14 05:15:51;;;;;;;25.67;10.88;;;7.50;84.60;;;;;;5119762;28;20110;-73
2021/03/14 05:18:17;;;;;;;21.25;9.55;;;7.50;84.40;;;;;;5120038;28;20031;-74
2021/03/14 05:20:43;;;;;;;22.40;9.93;;;7.40;85.00;;;;;;5119515;28;20028;-73
2021/03/14 05:23:09;;;;;;;20.55;10.55;;;7.50;85.00;;;;;;5119764;28;20024;-73
2021/03/14 05:25:35;;;;;;;20.15;10.00;;;7.50;84.50;;;;;;5119697;28;20030;-74
2021/03/14 05:28:03;;;;;;;18.40;9.95;;;7.50;84.20;;;;;;5119543;28;20034;-73
2021/03/14 05:30:36;;;;;;;30.30;16.95;;;7.50;84.60;;;;;;5119642;28;20032;-73
2021/03/14 05:33:03;;;;;;;37.80;21.52;;;7.40;85.70;;;;;;5101358;28;20023;-74
2021/03/14 05:35:31;;;;;;;37.20;21.45;;;7.20;86.90;;;;;;5119339;28;20024;-74
2021/03/14 05:37:59;;;;;;;33.33;18.02;;;7.20;87.60;;;;;;5119218;28;20158;-73
2021/03/14 05:40:26;;;;;;;33.50;18.63;;;7.10;88.30;;;;;;5119015;28;20095;-74
2021/03/14 05:42:53;;;;;;;27.90;17.45;;;7.00;88.50;;;;;;5119158;28;20032;-73
2021/03/14 05:45:19;;;;;;;33.05;18.92;;;7.10;88.50;;;;;;5119471;28;20016;-73
2021/03/14 05:47:45;;;;;;;31.80;16.85;;;7.20;88.10;;;;;;5119438;28;20394;-74
2021/03/14 05:50:14;;;;;;;27.10;16.15;;;7.20;88.00;;;;;;5100945;28;20031;-74
2021/03/14 05:52:42;;;;;;;27.25;16.85;;;7.30;88.00;;;;;;5119070;28;20046;-73
2021/03/14 05:55:12;;;;;;;24.40;12.52;;;7.30;87.60;;;;;;5119165;28;20023;-74
2021/03/14 05:57:41;;;;;;;24.15;12.30;;;7.20;87.50;;;;;;5118958;28;20024;-74
2021/03/14 06:00:07;;;;;;;22.33;11.80;;;7.20;87.00;;;;;;5119012;28;20032;-73
2021/03/14 06:02:33;;;;;;;26.20;11.57;;;7.20;86.80;;;;;;5100721;28;20425;-73
2021/03/14 06:05:00;;;;;;;27.17;12.32;;;7.20;87.20;;;;;;5118802;28;20103;-73
2021/03/14 06:07:27;;;;;;;22.98;11.40;;;7.30;86.00;;;;;;5118909;28;20027;-74
2021/03/14 06:09:53;;;;;;;20.42;10.82;;;7.30;85.80;;;;;;5118823;28;20119;-74
2021/03/14 06:12:19;;;;;;;21.77;10.70;;;7.40;84.70;;;;;;5118839;28;20035;-73
2021/03/14 06:14:45;;;;;;;28.25;11.10;;;7.60;85.30;;;;;;5118931;28;20031;-74
2021/03/14 06:17:10;;;;;;;19.98;9.85;;;7.60;85.80;;;;;;5100487;28;20415;-73
2021/03/14 06:19:36;;;;;;;25.23;10.55;;;7.70;85.00;;;;;;5118383;28;20319;-74
2021/03/14 06:22:34;;;;;;;19.65;9.77;;;7.80;84.30;;;;;;5118378;28;20030;-73
2021/03/14 06:25:00;;;;;;;22.23;11.20;;;7.90;85.00;;;;;;5073555;28;20032;-74
2021/03/14 06:27:37;;;;;;;19.10;8.70;;;8.00;84.00;;;;;;5118349;28;20319;-74
2021/03/14 06:30:16;;;;;;;22.85;10.15;;;8.10;81.40;;;;;;5118219;28;20411;-72
2021/03/14 06:33:08;;;;;;;21.90;9.57;;;8.20;81.30;;;;;;5100149;28;20030;-72
2021/03/14 06:35:45;;;;;;;24.08;9.68;;;8.30;80.90;;;;;;5118220;28;20027;-72
2021/03/14 06:38:27;;;;;;;18.83;9.52;;;8.50;81.50;;;;;;5118249;28;20031;-74
2021/03/14 06:41:20;;;;;;;28.38;8.85;;;8.60;82.90;;;;;;5117687;28;20071;-72
2021/03/14 06:43:48;;;;;;;16.27;8.95;;;8.80;82.60;;;;;;5118003;28;20111;-72
2021/03/14 06:46:32;;;;;;;22.58;12.90;;;8.90;82.30;;;;;;5117916;28;20028;-74
2021/03/14 06:49:16;;;;;;;27.38;13.23;;;9.10;81.90;;;;;;5117603;28;20418;-74
2021/03/14 06:51:44;;;;;;;31.52;12.27;;;9.10;81.40;;;;;;5099755;28;20020;-74
2021/03/14 06:54:29;;;;;;;23.10;11.30;;;9.20;80.40;;;;;;5118155;28;20034;-74
2021/03/14 06:56:58;;;;;;;22.20;12.88;;;9.30;80.00;;;;;;5117834;28;20028;-74
2021/03/14 06:59:24;;;;;;;24.80;14.20;;;9.20;80.40;;;;;;5117632;28;20023;-73
2021/03/14 07:01:56;;;;;;;26.65;15.77;;;9.10;81.00;;;;;;5117729;28;20023;-74
2021/03/14 07:04:47;;;;;;;28.42;17.90;;;9.00;82.00;;;;;;5117820;28;20024;-74
2021/03/14 07:07:16;;;;;;;26.40;16.65;;;8.90;82.60;;;;;;5118028;28;20370;-73
2021/03/14 07:09:42;;;;;;;30.23;17.20;;;8.90;83.10;;;;;;5117701;28;20027;-74
2021/03/14 07:12:19;;;;;;;28.60;18.00;;;8.90;82.40;;;;;;5117833;28;20027;-74
2021/03/14 07:14:45;;;;;;;29.10;18.02;;;8.90;83.60;;;;;;5118133;28;20437;-73
2021/03/14 07:17:11;;;;;;;33.15;21.70;;;8.90;84.40;;;;;;5117525;28;20032;-74
2021/03/14 07:19:38;;;;;;;38.75;23.55;;;8.90;84.80;;;;;;5117467;28;20027;-74
2021/03/14 07:22:10;;;;;;;34.95;23.30;;;8.80;85.30;;;;;;5117378;28;20418;-74
2021/03/14 07:24:40;;;;;;;32.88;22.45;;;8.80;85.70;;;;;;5117701;28;20023;-74
2021/03/14 07:27:08;;;;;;;39.80;21.60;;;8.90;85.70;;;;;;5117375;28;20031;-74
2021/03/14 07:29:34;;;;;;;37.80;22.85;;;8.80;84.90;;;;;;5117517;28;20313;-74
2021/03/14 07:32:02;;;;;;;36.67;21.67;;;8.70;85.90;;;;;;5117299;28;20035;-74
2021/03/14 07:34:28;;;;;;;34.70;22.52;;;8.70;86.40;;;;;;5099332;28;20322;-74
2021/03/14 07:36:54;;;;;;;33.55;21.63;;;8.80;86.30;;;;;;5117207;28;20403;-74
2021/03/14 07:39:20;;;;;;;29.55;16.50;;;9.00;86.20;;;;;;5116915;28;20023;-74
2021/03/14 07:41:46;;;;;;;22.02;10.80;;;9.20;83.20;;;;;;5117253;28;20032;-74
2021/03/14 07:44:13;;;;;;;18.73;8.93;;;9.40;78.30;;;;;;5099150;28;20050;-74
2021/03/14 07:46:43;;;;;;;16.33;7.97;;;9.60;77.20;;;;;;5117424;28;20031;-74
2021/03/14 07:49:13;;;;;;;22.00;12.02;;;9.90;75.90;;;;;;5117335;28;20024;-74
2021/03/14 07:51:43;;;;;;;29.23;15.35;;;10.10;76.50;;;;;;5117149;28;20073;-74
2021/03/14 07:54:12;;;;;;;27.40;16.88;;;10.00;77.70;;;;;;5117409;28;20020;-74
2021/03/14 07:56:39;;;;;;;30.45;21.30;;;10.00;79.50;;;;;;5117054;28;20035;-74
2021/03/14 07:59:06;;;;;;;27.30;19.88;;;9.90;80.30;;;;;;5116967;28;20095;-74
2021/03/14 08:01:35;;;;;;;34.70;21.88;;;9.80;81.40;;;;;;5118387;28;20371;-74
2021/03/14 08:04:01;;;;;;;34.33;22.30;;;9.60;82.60;;;;;;5121409;28;20374;-74
2021/03/14 08:06:45;;;;;;;32.92;20.38;;;9.40;84.20;;;;;;5121132;28;20052;-74
2021/03/14 08:09:12;;;;;;;26.00;17.45;;;9.30;84.40;;;;;;5102944;28;20055;-74
2021/03/14 08:11:37;;;;;;;30.30;17.02;;;9.20;82.50;;;;;;5120940;28;20088;-73
2021/03/14 08:14:03;;;;;;;30.70;17.80;;;9.30;81.80;;;;;;5121200;28;20019;-74
2021/03/14 08:16:29;;;;;;;37.63;22.23;;;9.40;82.20;;;;;;5120931;28;20023;-74
2021/03/14 08:18:57;;;;;;;34.97;21.77;;;9.60;84.40;;;;;;5121112;28;20433;-73
2021/03/14 08:21:28;;;;;;;32.38;21.02;;;9.90;82.50;;;;;;5120636;28;20028;-74
2021/03/14 08:23:55;;;;;;;30.08;20.17;;;10.10;81.80;;;;;;5121401;28;20352;-74
2021/03/14 08:26:25;;;;;;;28.83;17.80;;;10.30;80.70;;;;;;5120741;28;20110;-74
2021/03/14 08:28:55;;;;;;;27.20;16.45;;;10.40;79.50;;;;;;5120708;28;20023;-74
2021/03/14 08:31:41;;;;;;;28.40;17.90;;;10.40;79.40;;;;;;5120562;28;20031;-74
2021/03/14 08:34:09;;;;;;;30.83;15.82;;;10.40;80.20;;;;;;5120601;28;20451;-74
2021/03/14 08:36:38;;;;;;;28.80;19.98;;;10.20;78.10;;;;;;5120513;28;20031;-74
2021/03/14 08:39:07;;;;;;;30.20;20.45;;;10.10;80.30;;;;;;5120710;28;20418;-74
2021/03/14 08:41:37;;;;;;;33.88;19.90;;;10.00;82.10;;;;;;5120167;28;20335;-74
2021/03/14 08:44:14;;;;;;;35.10;20.30;;;9.90;82.90;;;;;;5120422;28;20027;-73
2021/03/14 08:46:46;;;;;;;38.70;21.48;;;9.50;83.70;;;;;;5120395;28;20064;-74
2021/03/14 08:49:19;;;;;;;35.42;21.58;;;9.10;85.60;;;;;;5120567;28;20020;-74
2021/03/14 08:51:45;;;;;;;29.88;19.02;;;8.70;87.20;;;;;;5120284;28;20031;-74
2021/03/14 08:54:12;;;;;;;31.20;20.00;;;8.70;87.60;;;;;;5120501;28;20115;-73
2021/03/14 08:56:38;;;;;;;32.90;19.65;;;8.60;87.60;;;;;;5120387;28;20024;-74
2021/03/14 08:59:11;;;;;;;35.22;20.00;;;8.50;88.40;;;;;;5102127;28;20139;-74
2021/03/14 09:01:38;;;;;;;35.13;21.77;;;8.40;88.80;;;;;;5120133;28;20084;-74
2021/03/14 09:04:14;;;;;;;36.63;21.38;;;8.30;90.00;;;;;;5120247;28;20092;-74
2021/03/14 09:06:40;;;;;;;30.50;19.48;;;8.20;91.70;;;;;;5119949;28;20429;-74
2021/03/14 09:09:11;;;;;;;33.85;21.90;;;8.10;92.10;;;;;;5119965;28;20024;-74
2021/03/14 09:11:48;;;;;;;36.08;23.55;;;8.10;92.60;;;;;;5119516;28;20036;-74
2021/03/14 09:14:29;;;;;;;31.65;20.67;;;8.10;92.40;;;;;;5119938;28;20023;-74
2021/03/14 09:16:57;;;;;;;31.13;15.93;;;7.90;92.30;;;;;;5119736;28;20057;-74
2021/03/14 09:19:36;;;;;;;26.17;15.23;;;7.90;92.50;;;;;;5119539;28;20296;-73
2021/03/14 09:22:08;;;;;;;2.60;2.05;;;7.70;89.00;;;;;;5119588;28;20102;-73
2021/03/14 09:24:33;;;;;;;3.70;1.23;;;7.20;79.80;;;;;;5120066;28;20027;-73
2021/03/14 09:27:08;;;;;;;2.85;1.08;;;6.30;79.10;;;;;;5119601;28;20399;-74
2021/03/14 09:29:47;;;;;;;0.80;0.50;;;5.40;83.30;;;;;;5119711;28;20094;-72
2021/03/14 09:32:16;;;;;;;1.20;0.50;;;4.70;82.60;;;;;;5119604;28;20028;-73
2021/03/14 09:34:42;;;;;;;1.33;0.30;;;4.30;86.70;;;;;;5119764;28;20024;-73
2021/03/14 09:37:08;;;;;;;0.38;0.20;;;4.00;86.70;;;;;;5119627;28;20430;-74
2021/03/14 09:39:34;;;;;;;0.63;0.10;;;3.90;87.90;;;;;;5118913;28;20027;-72
2021/03/14 09:42:00;;;;;;;0.65;0.20;;;3.80;88.60;;;;;;5101245;28;20119;-74
2021/03/14 09:44:25;;;;;;;0.28;0.10;;;3.80;90.20;;;;;;5119262;28;20031;-75
2021/03/14 09:46:56;;;;;;;0.50;0.30;;;3.70;88.80;;;;;;5101113;28;20015;-74
2021/03/14 09:49:21;;;;;;;0.70;0.30;;;3.70;89.10;;;;;;5119494;28;20327;-74
2021/03/14 09:51:58;;;;;;;0.98;0.40;;;3.80;89.60;;;;;;5119093;28;20020;-74
2021/03/14 09:54:24;;;;;;;;;;;3.80;87.80;;;;;;5119702;28;20015;-75
2021/03/14 09:56:56;;;;;;;0.10;0.10;;;3.80;89.20;;;;;;5119064;28;19904;-74
2021/03/14 09:59:27;;;;;;;0.60;0.20;;;3.80;87.40;;;;;;5118897;28;20016;-74
2021/03/14 10:01:55;;;;;;;0.20;0.20;;;3.80;90.10;;;;;;5119171;28;20157;-74
2021/03/14 10:04:21;;;;;;;0.68;0.10;;;3.70;89.30;;;;;;5119085;28;20019;-74
2021/03/14 10:06:46;;;;;;;0.73;0.30;;;3.50;90.50;;;;;;5118808;28;20482;-73
2021/03/14 10:09:22;;;;;;;0.20;0.20;;;3.50;89.90;;;;;;5118743;28;20091;-73
2021/03/14 10:11:50;;;;;;;1.55;0.10;;;3.30;91.00;;;;;;5116338;28;20031;-73
2021/03/14 10:14:18;;;;;;;0.75;0.20;;;3.20;90.90;;;;;;5117601;28;20030;-73
2021/03/14 10:16:44;;;;;;;0.47;0.30;;;3.10;92.30;;;;;;5118703;28;20023;-72
2021/03/14 10:19:10;;;;;;;0.57;0.20;;;3.00;91.60;;;;;;5118439;28;20357;-72
2021/03/14 10:24:55;;;;;;;6.22;1.55;;;2.60;91.50;;;;;;4909698;27;822873;-71
2021/03/14 10:27:22;;;;;;;3.50;0.22;;;2.40;92.40;;;;;;5086199;28;20040;-71
2021/03/14 10:29:58;;;;;;;0.25;0.20;;;2.30;92.80;;;;;;5074026;28;20485;-72
2021/03/14 10:32:28;;;;;;;1.75;0.30;;;2.30;92.70;;;;;;5074303;28;20025;-72
2021/03/14 10:35:01;;;;;;;0.30;0.10;;;2.30;92.30;;;;;;5074134;28;20051;-72
2021/03/14 10:37:32;;;;;;;1.65;0.22;;;2.20;92.90;;;;;;5074178;28;20036;-72
2021/03/14 10:40:05;;;;;;;0.50;0.20;;;2.20;93.10;;;;;;5073971;28;20029;-72
2021/03/14 10:42:40;;;;;;;0.35;0.20;;;2.10;93.20;;;;;;5073764;28;20416;-72
2021/03/14 10:45:31;;;;;;;2.97;0.35;;;2.20;92.90;;;;;;5072622;28;20020;-71
2021/03/14 10:47:58;;;;;;;0.20;0.20;;;2.30;92.40;;;;;;5073956;28;20412;-71
2021/03/14 10:50:32;;;;;;;1.85;0.17;;;2.50;91.40;;;;;;5073649;28;20096;-71
2021/03/14 10:53:15;;;;;;;0.40;0.20;;;2.60;91.20;;;;;;5073838;28;20056;-71
2021/03/14 10:55:43;;;;;;;0.32;0.28;;;2.80;90.50;;;;;;5073494;28;20041;-71
2021/03/14 10:58:16;;;;;;;0.30;0.20;;;2.90;89.00;;;;;;5073486;28;20033;-71
2021/03/14 11:00:45;;;;;;;0.45;0.20;;;3.00;88.50;;;;;;5073463;28;20030;-72
2021/03/14 11:03:23;;;;;;;0.45;0.20;;;3.10;87.00;;;;;;5073179;28;20408;-71
2021/03/14 11:05:50;;;;;;;0.20;0.20;;;3.30;85.40;;;;;;5073589;28;20029;-71
2021/03/14 11:08:15;;;;;;;1.63;0.40;;;3.40;83.80;;;;;;5073461;28;20028;-71
2021/03/14 11:10:51;;;;;;;3.47;0.30;;;3.60;81.50;;;;;;5073187;28;20147;-72
2021/03/14 11:13:17;;;;;;;0.20;0.20;;;3.70;82.00;;;;;;5073405;28;20037;-71
2021/03/14 11:15:42;;;;;;;0.73;0.17;;;3.80;80.10;;;;;;5073136;28;20036;-71
2021/03/14 11:18:19;;;;;;;0.43;0.20;;;3.80;81.70;;;;;;5073007;28;20057;-72
2021/03/14 11:20:45;;;;;;;0.63;0.15;;;4.00;77.30;;;;;;5073044;28;20028;-72
2021/03/14 11:23:11;;;;;;;0.20;0.20;;;4.20;75.40;;;;;;5071469;28;20049;-71
2021/03/14 11:25:36;;;;;;;0.43;0.20;;;4.30;75.10;;;;;;5073140;28;20369;-71
2021/03/14 11:28:08;;;;;;;0.30;0.10;;;4.40;74.10;;;;;;5072921;28;20056;-71
2021/03/14 11:30:35;;;;;;;0.30;0.10;;;4.40;73.50;;;;;;5072810;28;20013;-71
2021/03/14 11:33:00;;;;;;;0.40;0.28;;;4.70;69.90;;;;;;5072647;28;20370;-71
2021/03/14 11:35:26;;;;;;;0.20;0.20;;;4.70;71.50;;;;;;5062856;28;20025;-71
2021/03/14 11:37:52;;;;;;;0.35;0.20;;;4.80;70.40;;;;;;5059494;28;20075;-71
2021/03/14 11:40:17;;;;;;;0.30;0.20;;;4.80;69.60;;;;;;5059412;28;20096;-71
2021/03/14 11:42:43;;;;;;;0.68;0.20;;;4.90;71.20;;;;;;5059304;28;20082;-71
2021/03/14 11:45:11;;;;;;;0.10;0.10;;;5.00;69.10;;;;;;5059257;28;20028;-71
2021/03/14 11:47:37;;;;;;;0.75;0.20;;;5.00;68.40;;;;;;5059272;28;20420;-71
2021/03/14 11:50:04;;;;;;;0.40;0.30;;;5.10;68.50;;;;;;5058160;28;20025;-71
2021/03/14 11:52:30;;;;;;;0.20;0.20;;;5.10;70.10;;;;;;5059014;28;20029;-71
2021/03/14 11:54:56;;;;;;;0.82;0.30;;;5.10;67.80;;;;;;5059069;28;20022;-71
2021/03/14 11:57:22;;;;;;;0.38;0.20;;;5.20;65.70;;;;;;5059136;28;20025;-71
2021/03/14 11:59:48;;;;;;;0.30;0.17;;;5.30;66.30;;;;;;5059337;28;20042;-71
2021/03/14 12:02:13;;;;;;;0.43;0.20;;;5.40;63.50;;;;;;5059193;28;20021;-71
2021/03/14 12:04:39;;;;;;;0.65;0.20;;;5.50;64.70;;;;;;5058908;28;20021;-71
2021/03/14 12:07:05;;;;;;;0.20;0.20;;;5.50;64.50;;;;;;5058943;28;20422;-71
2021/03/14 12:09:31;;;;;;;0.15;0.10;;;5.50;64.00;;;;;;5058942;28;20108;-71
2021/03/14 12:11:58;;;;;;;0.30;0.20;;;5.50;62.90;;;;;;5058863;28;20478;-71
2021/03/14 12:14:24;;;;;;;0.13;0.10;;;5.60;64.80;;;;;;5058835;28;20029;-71
2021/03/14 12:16:49;;;;;;;0.20;0.17;;;5.60;64.90;;;;;;5059031;28;20431;-71
2021/03/14 12:19:15;;;;;;;0.50;0.40;;;5.70;62.50;;;;;;5058688;28;20297;-71
2021/03/14 12:21:41;;;;;;;0.20;0.17;;;5.70;63.80;;;;;;5058685;28;20082;-71
2021/03/14 12:24:07;;;;;;;0.20;0.20;;;5.80;63.90;;;;;;5070241;28;20053;-71
2021/03/14 12:26:32;;;;;;;3.83;0.77;;;5.90;61.30;;;;;;5078804;28;20029;-71
2021/03/14 12:28:58;;;;;;;0.40;0.20;;;6.00;62.20;;;;;;5078514;28;20104;-71
2021/03/14 12:31:24;;;;;;;0.22;0.10;;;6.10;61.20;;;;;;5078748;28;20027;-71
2021/03/14 12:33:50;;;;;;;0.47;0.30;;;6.20;62.80;;;;;;5078640;28;20039;-71
2021/03/14 12:36:16;;;;;;;0.10;0.10;;;6.20;60.20;;;;;;5078399;28;20028;-71
2021/03/14 12:38:42;;;;;;;0.30;0.20;;;6.30;59.20;;;;;;5078342;28;20021;-71
2021/03/14 12:41:09;;;;;;;0.40;0.20;;;6.40;61.90;;;;;;5078254;28;20412;-71
2021/03/14 12:43:35;;;;;;;0.57;0.17;;;6.40;58.90;;;;;;5078114;28;20101;-71
2021/03/14 12:46:01;;;;;;;0.30;0.20;;;6.50;59.30;;;;;;5077439;28;20426;-71
2021/03/14 12:48:27;;;;;;;0.65;0.30;;;6.50;58.90;;;;;;5077963;28;20052;-71
2021/03/14 12:50:52;;;;;;;0.70;0.20;;;6.60;60.90;;;;;;5078104;28;20312;-71
2021/03/14 12:53:18;;;;;;;0.30;0.20;;;6.60;57.50;;;;;;5078132;28;20056;-71